Dardanelle, CA

7:55 AM PDT on May 23, 2015 (GMT -0700)
Lake Tahoe | | Change Station
CLOSE
Current Station
Airport
Location: South Lake Tahoe,
Elevation: 6263 ft
Nearby Weather Stations

Elev 6263 ft 38.90 °N, 120.00 °W | Updated 1 hour ago

Overcast
Overcast
46 °F
Feels Like 45 °F
N
4
Wind Variable Wind from SSW

Today
High -- | Low -- °F
--% Chance of Precip.
Yesterday
High -- | Low -- °F
Precip. -- in
5:42 AM 8:10 PM
Waxing Crescent, 30% visible
Pressure 29.99 in
Visibility 10.0 miles
Clouds Few 2600 ft
Scattered Clouds 4300 ft
Overcast 5500 ft
Windchill 45 °F
Dew Point 41 °F
Humidity 83%
Rainfall 0.00 in
Snow Depth Not available.
UV 0 out of 12
Pollen 6.20 out of 12
Air Quality Not available.
Flu Activity Sporadic
METAR KTVL 231353Z AUTO 20003KT 10SM FEW026 SCT043 OVC055 08/05 A3009 RMK AO2 SLP156 T00780050

More Conditions Fewer Conditions

Pressure 29.99 in
Visibility 10.0 miles
Clouds Few 2600 ft
Scattered Clouds 4300 ft
Overcast 5500 ft
Windchill 45 °F
Dew Point 41 °F
Humidity 83%
Rainfall 0.00 in
Snow Depth Not available.
UV 0 out of 12
Pollen 6.20 out of 12
Air Quality Not available.
Flu Activity Sporadic
METAR KTVL 231353Z AUTO 20003KT 10SM FEW026 SCT043 OVC055 08/05 A3009 RMK AO2 SLP156 T00780050

More Conditions Fewer Conditions

10-Day Weather Forecast

Almanac

Astronomy

May. 23, 2015 Rise Set
Actual Time
Civil Twilight
Nautical Twilight
Astronomical Twilight
Moon
Length of Visible Light
Length of Day
Tomorrow will be .
, % of the Moon is Illuminated

Today's Extremes

State Highs State Lows

Community

WunderPhotos

Upload Photos

1,823,480 photos uploaded!

WunderBlogs® & News

Nearby

Air Quality

  Air Quality AQ Index Pollutant
Not available.

Snow Depth

Station Depth Elevation

Earthquake Activity

City Distance Mag. Time & Date
Minimum magnitude displayed is 2.5.

Coastal Water Temperatures

Place Temperature

Stations

Nearby Weather Stations

Station Location Temp. Windchill Dew Point Humidity Wind Precip. Elev Updated Type